createdAt,value
2017-03-02T00:00:02.540Z,98.54
2017-03-02T00:01:02.515Z,98.63
2017-03-02T00:02:02.511Z,99.01
2017-03-02T00:03:02.482Z,99.1
2017-03-02T00:04:02.479Z,99.2
2017-03-02T00:05:02.462Z,98.91
2017-03-02T00:06:02.441Z,98.82
2017-03-02T00:07:02.428Z,98.91
2017-03-02T00:08:02.429Z,99.1
2017-03-02T00:09:02.406Z,99.1
2017-03-02T00:10:02.387Z,98.91
2017-03-02T00:11:02.374Z,99.01
2017-03-02T00:12:02.365Z,99.1
2017-03-02T00:13:02.375Z,98.82
2017-03-02T00:14:02.337Z,99.01
2017-03-02T00:15:02.325Z,99.48
2017-03-02T00:16:02.317Z,99.01
2017-03-02T00:17:02.299Z,98.72
2017-03-02T00:18:02.300Z,98.91
2017-03-02T00:19:02.271Z,98.72
2017-03-02T00:20:02.262Z,98.91
2017-03-02T00:21:02.255Z,98.91
2017-03-02T00:22:02.232Z,98.91
2017-03-02T00:23:02.222Z,98.87
2017-03-02T00:24:02.208Z,98.96
2017-03-02T00:25:02.215Z,99.72
2017-03-02T00:26:02.182Z,99.63
2017-03-02T00:27:02.170Z,98.87
2017-03-02T00:28:02.155Z,99.72
2017-03-02T00:29:02.144Z,99.63
2017-03-02T00:30:02.130Z,99.63
2017-03-02T00:31:02.118Z,99.53
2017-03-02T00:32:02.116Z,98.96
2017-03-02T00:33:02.092Z,98.77
2017-03-02T00:34:02.090Z,98.96
2017-03-02T00:35:02.066Z,98.87
2017-03-02T00:36:02.072Z,98.96
2017-03-02T00:37:02.049Z,98.87
2017-03-02T00:38:02.048Z,99.06
2017-03-02T00:39:02.015Z,99.15
2017-03-02T00:40:02.002Z,98.96
2017-03-02T00:41:02.041Z,98.39
2017-03-02T00:42:01.981Z,98.68
2017-03-02T00:43:01.973Z,99.06
2017-03-02T00:44:01.955Z,99.06
2017-03-02T00:45:01.940Z,98.77
2017-03-02T00:46:01.935Z,98.77
2017-03-02T00:47:01.918Z,98.87
2017-03-02T00:48:01.912Z,98.77
2017-03-02T00:49:01.892Z,98.77
2017-03-02T00:50:01.877Z,98.77
2017-03-02T00:51:01.878Z,98.77
2017-03-02T00:52:01.852Z,98.96
2017-03-02T00:53:01.854Z,98.96
2017-03-02T00:54:01.828Z,99.15
2017-03-02T00:55:01.852Z,98.77
2017-03-02T00:56:01.803Z,98.39
2017-03-02T00:57:01.793Z,98.3
2017-03-02T00:58:01.781Z,98.39
2017-03-02T00:59:01.765Z,98.49
2017-03-02T01:00:01.758Z,98.58
2017-03-02T01:01:01.741Z,98.77
2017-03-02T01:02:01.733Z,98.96
2017-03-02T01:03:01.723Z,98.68
2017-03-02T01:04:01.705Z,98.87
2017-03-02T01:05:01.695Z,98.77
2017-03-02T01:06:01.684Z,97.83
2017-03-02T01:07:01.679Z,97.83
2017-03-02T01:08:01.654Z,98.11
2017-03-02T01:09:01.649Z,98.39
2017-03-02T01:10:01.630Z,98.11
2017-03-02T01:11:01.628Z,98.58
2017-03-02T01:12:01.623Z,98.3
2017-03-02T01:13:01.620Z,98.54
2017-03-02T01:14:01.196Z,98.11
2017-03-02T01:15:01.580Z,98.07
2017-03-02T01:16:01.583Z,98.35
2017-03-02T01:17:01.545Z,98.77
2017-03-02T01:18:01.535Z,98.44
2017-03-02T01:19:01.525Z,98.16
2017-03-02T01:20:01.514Z,98.82
2017-03-02T01:21:01.497Z,98.35
2017-03-02T01:22:01.484Z,97.97
2017-03-02T01:23:01.485Z,98.07
2017-03-02T01:24:01.461Z,97.88
2017-03-02T01:25:01.448Z,98.44
2017-03-02T01:26:01.437Z,98.16
2017-03-02T01:27:01.427Z,97.97
2017-03-02T01:28:01.410Z,97.69
2017-03-02T01:29:01.401Z,98.35
2017-03-02T01:30:01.388Z,97.78
2017-03-02T01:31:01.380Z,97.97
2017-03-02T01:32:01.365Z,97.78
2017-03-02T01:33:01.361Z,97.97
2017-03-02T01:34:01.340Z,98.16
2017-03-02T01:35:01.332Z,98.07
2017-03-02T01:36:01.318Z,98.07
2017-03-02T01:37:01.305Z,98.25
2017-03-02T01:38:01.319Z,98.25
2017-03-02T01:39:01.291Z,98.25
2017-03-02T01:40:01.279Z,97.97
2017-03-02T01:41:01.257Z,97.69
2017-03-02T01:42:01.244Z,97.97
2017-03-02T01:43:01.233Z,97.97
2017-03-02T01:44:01.233Z,97.78
2017-03-02T01:45:01.218Z,97.31
2017-03-02T01:46:01.194Z,97.4
2017-03-02T01:47:01.190Z,97.02
2017-03-02T01:48:01.180Z,97.21
2017-03-02T01:49:01.157Z,97.5
2017-03-02T01:50:01.159Z,96.92
2017-03-02T01:51:01.137Z,97.12
2017-03-02T01:52:01.138Z,97.31
2017-03-02T01:53:01.115Z,96.92
2017-03-02T01:54:01.100Z,97.21
2017-03-02T01:55:01.090Z,96.92
2017-03-02T01:56:01.078Z,97.12
2017-03-02T01:57:01.095Z,97.31
2017-03-02T01:58:01.053Z,96.92
2017-03-02T01:59:01.040Z,96.92
2017-03-02T02:00:01.030Z,96.83
2017-03-02T02:01:01.017Z,97.02
2017-03-02T02:02:01.007Z,97.12
2017-03-02T02:03:00.996Z,96.92
2017-03-02T02:04:01.008Z,96.73
2017-03-02T02:05:00.979Z,97.12
2017-03-02T02:06:00.957Z,96.83
2017-03-02T02:07:00.950Z,97.07
2017-03-02T02:08:00.933Z,96.45
2017-03-02T02:09:00.921Z,96.64
2017-03-02T02:10:00.911Z,96.36
2017-03-02T02:11:00.899Z,96.17
2017-03-02T02:12:00.889Z,96.36
2017-03-02T02:13:00.880Z,96.45
2017-03-02T02:14:00.867Z,96.73
2017-03-02T02:15:00.861Z,96.36
2017-03-02T02:16:00.839Z,96.03
2017-03-02T02:17:00.828Z,96.55
2017-03-02T02:18:00.817Z,95.88
2017-03-02T02:19:00.805Z,95.55
2017-03-02T02:20:00.803Z,95.46
2017-03-02T02:21:00.780Z,95.98
2017-03-02T02:22:00.770Z,96.22
2017-03-02T02:23:00.770Z,96.08
2017-03-02T02:24:00.747Z,96.08
2017-03-02T02:25:00.740Z,95.69
2017-03-02T02:26:00.722Z,95.98
2017-03-02T02:27:00.708Z,96.03
2017-03-02T02:28:00.701Z,95.98
2017-03-02T02:29:00.688Z,95.98
2017-03-02T02:30:00.676Z,95.6
2017-03-02T02:31:00.665Z,95.93
2017-03-02T02:32:00.678Z,95.55
2017-03-02T02:33:00.646Z,95.55
2017-03-02T02:34:00.644Z,95.84
2017-03-02T02:35:00.618Z,95.84
2017-03-02T02:36:00.604Z,95.65
2017-03-02T02:37:00.598Z,95.65
2017-03-02T02:38:00.585Z,94.98
2017-03-02T02:39:00.571Z,95.27
2017-03-02T02:40:00.175Z,95.07
2017-03-02T02:41:00.547Z,95.27
2017-03-02T02:42:00.536Z,95.07
2017-03-02T02:43:00.524Z,95.27
2017-03-02T02:44:00.514Z,95.46
2017-03-02T02:45:00.499Z,95.46
2017-03-02T02:46:00.503Z,95.27
2017-03-02T02:47:00.477Z,95.17
2017-03-02T02:48:00.466Z,95.17
2017-03-02T02:49:00.454Z,95.07
2017-03-02T02:50:00.458Z,95.17
2017-03-02T02:51:00.446Z,95.17
2017-03-02T02:52:00.418Z,95.27
2017-03-02T02:53:00.416Z,94.98
2017-03-02T02:54:00.399Z,95.36
2017-03-02T02:55:00.383Z,95.36
2017-03-02T02:56:00.386Z,95.84
2017-03-02T02:57:00.367Z,95.07
2017-03-02T02:58:00.373Z,95.27
2017-03-02T02:59:00.337Z,95.17
2017-03-02T03:00:00.325Z,95.17
2017-03-02T03:01:00.320Z,95.55
2017-03-02T03:02:00.303Z,95.74
2017-03-02T03:03:00.293Z,95.74
2017-03-02T03:04:00.280Z,95.55
2017-03-02T03:05:00.268Z,95.17
2017-03-02T03:06:00.258Z,95.65
2017-03-02T03:07:00.255Z,95.65
2017-03-02T03:08:00.234Z,95.36
2017-03-02T03:09:00.229Z,95.55
2017-03-02T03:10:00.210Z,95.46
2017-03-02T03:11:00.199Z,95.07
2017-03-02T03:12:00.189Z,95.55
2017-03-02T03:13:00.187Z,95.27
2017-03-02T03:14:00.163Z,95.07
2017-03-02T03:15:00.155Z,95.27
2017-03-02T03:16:00.143Z,95.17
2017-03-02T03:17:00.132Z,95.31
2017-03-02T03:17:59.734Z,94.74
2017-03-02T03:19:00.419Z,95.03
2017-03-02T03:19:59.718Z,95.03
2017-03-02T03:21:00.087Z,95.12
2017-03-02T03:22:00.080Z,95.12
2017-03-02T03:23:00.062Z,94.93
2017-03-02T03:24:00.057Z,95.03
2017-03-02T03:25:00.040Z,94.93
2017-03-02T03:26:00.030Z,95.31
2017-03-02T03:27:00.020Z,95.03
2017-03-02T03:28:00.010Z,94.37
2017-03-02T03:29:00.012Z,94.27
2017-03-02T03:29:59.991Z,94.65
2017-03-02T03:30:59.974Z,94.56
2017-03-02T03:31:59.963Z,94.56
2017-03-02T03:32:59.962Z,94.37
2017-03-02T03:34:00.197Z,94.65
2017-03-02T03:34:59.929Z,94.56
2017-03-02T03:35:59.918Z,94.65
2017-03-02T03:36:59.914Z,94.37
2017-03-02T03:37:59.899Z,94.65
2017-03-02T03:38:59.885Z,94.65
2017-03-02T03:39:59.872Z,94.56
2017-03-02T03:40:59.878Z,94.56
2017-03-02T03:41:59.851Z,94.18
2017-03-02T03:42:59.839Z,94.08
2017-03-02T03:43:59.829Z,93.8
2017-03-02T03:44:59.826Z,93.99
2017-03-02T03:45:59.807Z,94.37
2017-03-02T03:46:59.794Z,94.65
2017-03-02T03:47:59.783Z,94.46
2017-03-02T03:48:59.776Z,94.18
2017-03-02T03:49:59.772Z,94.74
2017-03-02T03:50:59.753Z,94.84
2017-03-02T03:51:59.742Z,94.65
2017-03-02T03:52:59.729Z,94.56
2017-03-02T03:53:59.717Z,94.27
2017-03-02T03:54:59.715Z,94.27
2017-03-02T03:55:59.695Z,94.37
2017-03-02T03:56:59.684Z,94.65
2017-03-02T03:57:59.308Z,94.65
2017-03-02T03:58:59.665Z,94.46
2017-03-02T03:59:59.656Z,94.46
2017-03-02T04:00:59.642Z,94.37
2017-03-02T04:01:59.629Z,94.08
2017-03-02T04:02:59.628Z,94.46
2017-03-02T04:03:59.613Z,94.56
2017-03-02T04:04:59.601Z,94.56
2017-03-02T04:05:59.588Z,94.27
2017-03-02T04:06:59.575Z,94.74
2017-03-02T04:07:59.574Z,94.65
2017-03-02T04:08:59.551Z,94.08
2017-03-02T04:09:59.542Z,94.56
2017-03-02T04:10:59.530Z,94.46
2017-03-02T04:11:59.519Z,94.37
2017-03-02T04:12:59.507Z,94.37
2017-03-02T04:13:59.504Z,94.65
2017-03-02T04:14:59.498Z,94.37
2017-03-02T04:15:59.488Z,94.27
2017-03-02T04:16:59.465Z,94.56
2017-03-02T04:17:59.066Z,94.74
2017-03-02T04:18:59.441Z,95.41
2017-03-02T04:19:59.431Z,95.03
2017-03-02T04:20:59.426Z,94.93
2017-03-02T04:21:59.408Z,95.12
2017-03-02T04:22:59.396Z,95.03
2017-03-02T04:23:59.422Z,95.12
2017-03-02T04:24:59.381Z,95.03
2017-03-02T04:25:59.368Z,94.93
2017-03-02T04:26:59.352Z,95.03
2017-03-02T04:27:59.341Z,94.93
2017-03-02T04:28:59.332Z,94.93
2017-03-02T04:29:59.325Z,95.03
2017-03-02T04:30:59.308Z,95.12
2017-03-02T04:31:59.297Z,95.31
2017-03-02T04:32:59.291Z,95.03
2017-03-02T04:33:59.276Z,95.22
2017-03-02T04:34:59.267Z,95.12
2017-03-02T04:35:59.262Z,95.03
2017-03-02T04:36:59.243Z,94.84
2017-03-02T04:37:59.239Z,95.31
2017-03-02T04:38:59.220Z,95.31
2017-03-02T04:39:59.214Z,95.41
2017-03-02T04:40:59.208Z,95.12
2017-03-02T04:41:59.198Z,95.31
2017-03-02T04:42:59.175Z,95.6
2017-03-02T04:43:59.174Z,95.12
2017-03-02T04:44:59.153Z,95.7
2017-03-02T04:45:59.142Z,95.89
2017-03-02T04:46:59.139Z,95.89
2017-03-02T04:47:59.120Z,95.12
2017-03-02T04:48:59.119Z,95.31
2017-03-02T04:49:59.103Z,95.41
2017-03-02T04:50:59.088Z,95.41
2017-03-02T04:51:59.077Z,95.79
2017-03-02T04:52:59.073Z,95.79
2017-03-02T04:53:59.063Z,95.41
2017-03-02T04:54:59.045Z,95.51
2017-03-02T04:55:59.042Z,95.51
2017-03-02T04:56:59.024Z,95.98
2017-03-02T04:57:59.012Z,95.7
2017-03-02T04:58:59.006Z,95.89
2017-03-02T04:59:58.988Z,95.98
2017-03-02T05:00:58.976Z,95.7
2017-03-02T05:01:58.972Z,95.79
2017-03-02T05:02:58.957Z,95.89
2017-03-02T05:03:58.944Z,95.89
2017-03-02T05:04:58.945Z,95.89
2017-03-02T05:05:58.921Z,95.89
2017-03-02T05:06:58.912Z,95.89
2017-03-02T05:07:58.910Z,96.08
2017-03-02T05:08:58.889Z,95.89
2017-03-02T05:09:58.877Z,95.7
2017-03-02T05:10:58.866Z,95.51
2017-03-02T05:11:58.855Z,96.08
2017-03-02T05:12:58.843Z,95.98
2017-03-02T05:13:58.841Z,96.36
2017-03-02T05:14:58.821Z,96.26
2017-03-02T05:15:58.813Z,96.26
2017-03-02T05:16:58.825Z,96.45
2017-03-02T05:17:58.788Z,96.45
2017-03-02T05:18:58.778Z,96.55
2017-03-02T05:19:58.768Z,96.17
2017-03-02T05:20:58.755Z,96.45
2017-03-02T05:21:58.744Z,96.74
2017-03-02T05:22:58.732Z,96.93
2017-03-02T05:23:58.733Z,96.83
2017-03-02T05:24:58.730Z,96.83
2017-03-02T05:25:58.702Z,97.12
2017-03-02T05:26:58.701Z,96.83
2017-03-02T05:27:58.679Z,97.12
2017-03-02T05:28:58.669Z,97.41
2017-03-02T05:29:58.662Z,97.02
2017-03-02T05:30:58.651Z,97.22
2017-03-02T05:31:58.654Z,97.02
2017-03-02T05:32:58.624Z,97.78
2017-03-02T05:33:58.612Z,97.69
2017-03-02T05:34:58.602Z,97.5
2017-03-02T05:35:58.604Z,97.6
2017-03-02T05:36:58.580Z,97.88
2017-03-02T05:37:58.569Z,97.88
2017-03-02T05:38:58.571Z,97.78
2017-03-02T05:39:58.548Z,97.6
2017-03-02T05:40:58.536Z,97.97
2017-03-02T05:41:58.528Z,98.45
2017-03-02T05:42:58.515Z,98.26
2017-03-02T05:43:58.507Z,98.16
2017-03-02T05:44:58.492Z,98.07
2017-03-02T05:45:58.481Z,98.35
2017-03-02T05:46:58.472Z,98.26
2017-03-02T05:47:58.469Z,98.35
2017-03-02T05:48:58.447Z,98.07
2017-03-02T05:49:58.438Z,98.26
2017-03-02T05:50:58.428Z,97.97
2017-03-02T05:51:58.030Z,97.69
2017-03-02T05:52:58.419Z,97.78
2017-03-02T05:53:58.402Z,98.07
2017-03-02T05:54:58.383Z,98.26
2017-03-02T05:55:58.380Z,98.31
2017-03-02T05:56:58.377Z,98.21
2017-03-02T05:57:58.367Z,97.88
2017-03-02T05:58:58.345Z,98.02
2017-03-02T05:59:58.343Z,98.12
2017-03-02T06:00:58.319Z,98.21
2017-03-02T06:01:58.308Z,98.21
2017-03-02T06:02:58.312Z,98.21
2017-03-02T06:03:58.299Z,97.64
2017-03-02T06:04:57.893Z,97.83
2017-03-02T06:05:58.265Z,97.74
2017-03-02T06:06:58.255Z,97.83
2017-03-02T06:07:58.253Z,97.83
2017-03-02T06:08:58.232Z,97.83
2017-03-02T06:09:58.234Z,97.64
2017-03-02T06:10:58.227Z,97.74
2017-03-02T06:11:58.225Z,97.64
2017-03-02T06:12:58.202Z,97.55
2017-03-02T06:13:58.180Z,97.64
2017-03-02T06:14:58.168Z,97.36
2017-03-02T06:15:58.166Z,97.27
2017-03-02T06:16:58.153Z,97.36
2017-03-02T06:17:58.145Z,97.36
2017-03-02T06:18:58.123Z,97.55
2017-03-02T06:19:58.117Z,97.07
2017-03-02T06:20:58.107Z,97.07
2017-03-02T06:21:58.095Z,96.69
2017-03-02T06:22:58.088Z,96.31
2017-03-02T06:23:58.076Z,96.31
2017-03-02T06:24:58.075Z,96.03
2017-03-02T06:25:58.053Z,96.31
2017-03-02T06:26:58.048Z,96.69
2017-03-02T06:27:58.031Z,96.41
2017-03-02T06:28:58.021Z,96.31
2017-03-02T06:29:58.017Z,96.12
2017-03-02T06:30:58.007Z,96.41
2017-03-02T06:31:57.995Z,96.45
2017-03-02T06:32:57.983Z,96.17
2017-03-02T06:33:57.971Z,95.79
2017-03-02T06:34:57.956Z,95.79
2017-03-02T06:35:57.958Z,95.7
2017-03-02T06:36:57.962Z,95.22
2017-03-02T06:37:57.926Z,95.7
2017-03-02T06:38:57.918Z,95.22
2017-03-02T06:39:57.907Z,94.93
2017-03-02T06:40:57.898Z,95.03
2017-03-02T06:41:57.887Z,95.22
2017-03-02T06:42:57.875Z,95.03
2017-03-02T06:43:57.871Z,95.32
2017-03-02T06:44:57.860Z,95.41
2017-03-02T06:45:57.845Z,95.32
2017-03-02T06:46:57.833Z,95.12
2017-03-02T06:47:57.827Z,94.93
2017-03-02T06:48:57.819Z,95.12
2017-03-02T06:49:57.807Z,94.56
2017-03-02T06:50:57.795Z,94.37
2017-03-02T06:51:57.796Z,94.27
2017-03-02T06:52:57.774Z,93.7
2017-03-02T06:53:57.767Z,94.18
2017-03-02T06:54:58.006Z,93.99
2017-03-02T06:55:57.744Z,93.79
2017-03-02T06:56:57.736Z,93.79
2017-03-02T06:57:57.736Z,93.79
2017-03-02T06:58:57.717Z,93.65
2017-03-02T06:59:57.708Z,93.55
2017-03-02T07:00:57.704Z,93.08
2017-03-02T07:01:57.689Z,92.89
2017-03-02T07:02:57.680Z,92.7
2017-03-02T07:03:57.669Z,92.8
2017-03-02T07:04:57.680Z,92.61
2017-03-02T07:05:57.656Z,92.13
2017-03-02T07:06:57.642Z,91.75
2017-03-02T07:07:57.636Z,91.47
2017-03-02T07:08:57.632Z,91.61
2017-03-02T07:09:57.613Z,91.61
2017-03-02T07:10:57.602Z,90.94
2017-03-02T07:11:57.599Z,91.13
2017-03-02T07:12:57.592Z,91.42
2017-03-02T07:13:57.600Z,90.84
2017-03-02T07:14:57.179Z,90.94
2017-03-02T07:15:57.565Z,90.28
2017-03-02T07:16:57.547Z,90.13
2017-03-02T07:17:57.541Z,89.47
2017-03-02T07:18:57.157Z,89.08
2017-03-02T07:19:57.525Z,88.99
2017-03-02T07:20:57.513Z,89.08
2017-03-02T07:21:57.505Z,88.79
2017-03-02T07:22:57.108Z,89.08
2017-03-02T07:23:57.492Z,89.27
2017-03-02T07:24:57.093Z,88.13
2017-03-02T07:25:57.084Z,88.51
2017-03-02T07:26:57.477Z,88.51
2017-03-02T07:27:57.463Z,88.04
2017-03-02T07:28:57.450Z,87.46
2017-03-02T07:29:57.047Z,88.13
2017-03-02T07:30:57.047Z,88.23
2017-03-02T07:31:57.421Z,87.56
2017-03-02T07:32:57.409Z,87.56
2017-03-02T07:33:57.415Z,87.75
2017-03-02T07:34:57.390Z,87.51
2017-03-02T07:35:57.385Z,86.84
2017-03-02T07:36:57.400Z,86.55
2017-03-02T07:37:57.365Z,86.55
2017-03-02T07:38:57.357Z,86.27
2017-03-02T07:39:57.361Z,86.36
2017-03-02T07:40:57.341Z,86.18
2017-03-02T07:41:56.944Z,86.84
2017-03-02T07:42:57.323Z,86.75
2017-03-02T07:43:57.314Z,86.18
2017-03-02T07:44:57.304Z,85.89
2017-03-02T07:45:57.299Z,85.7
2017-03-02T07:46:57.303Z,85.51
2017-03-02T07:47:57.283Z,84.36
2017-03-02T07:48:57.273Z,85.03
2017-03-02T07:49:57.268Z,84.6
2017-03-02T07:50:57.258Z,84.98
2017-03-02T07:51:57.248Z,84.41
2017-03-02T07:52:57.240Z,84.5
2017-03-02T07:53:57.236Z,84.31
2017-03-02T07:54:57.226Z,84.69
2017-03-02T07:55:57.216Z,84.03
2017-03-02T07:56:57.222Z,83.74
2017-03-02T07:57:57.215Z,83.93
2017-03-02T07:58:57.204Z,84.03
2017-03-02T07:59:57.186Z,85.27
2017-03-02T08:00:57.175Z,85.64
2017-03-02T08:01:57.186Z,85.36
2017-03-02T08:02:57.172Z,85.84
2017-03-02T08:03:57.156Z,85.84
2017-03-02T08:04:57.148Z,85.36
2017-03-02T08:05:57.143Z,84.98
2017-03-02T08:06:57.131Z,84.98
2017-03-02T08:07:57.123Z,85.93
2017-03-02T08:08:57.115Z,85.55
2017-03-02T08:09:57.112Z,85.36
2017-03-02T08:10:57.110Z,86.41
2017-03-02T08:11:57.104Z,86.51
2017-03-02T08:12:57.084Z,87.07
2017-03-02T08:13:57.076Z,87.27
2017-03-02T08:14:57.079Z,87.03
2017-03-02T08:15:57.061Z,86.46
2017-03-02T08:16:57.053Z,87.13
2017-03-02T08:17:57.043Z,88.08
2017-03-02T08:18:57.036Z,88.46
2017-03-02T08:19:57.028Z,88.93
2017-03-02T08:20:57.024Z,89.08
2017-03-02T08:21:57.012Z,89.65
2017-03-02T08:22:57.018Z,90.13
2017-03-02T08:23:57.010Z,90.61
2017-03-02T08:24:56.987Z,90.94
2017-03-02T08:25:56.978Z,91.7
2017-03-02T08:26:56.977Z,91.99
2017-03-02T08:27:56.986Z,92.61
2017-03-02T08:28:56.954Z,93.27
2017-03-02T08:29:56.955Z,93.65
2017-03-02T08:30:56.946Z,94.22
2017-03-02T08:31:56.926Z,94.37
2017-03-02T08:32:56.918Z,94.37
2017-03-02T08:33:56.906Z,95.6
2017-03-02T08:34:56.898Z,95.6
2017-03-02T08:35:56.887Z,95.79
2017-03-02T08:36:56.877Z,95.89
2017-03-02T08:37:56.868Z,96.36
2017-03-02T08:38:56.863Z,96.36
2017-03-02T08:39:56.850Z,97.6
2017-03-02T08:40:56.847Z,97.31
2017-03-02T08:41:56.833Z,98.31
2017-03-02T08:42:56.820Z,97.83
2017-03-02T08:43:56.813Z,97.17
2017-03-02T08:44:56.804Z,96.12
2017-03-02T08:45:56.794Z,96.65
2017-03-02T08:46:56.795Z,95.89
2017-03-02T08:47:56.791Z,93.98
2017-03-02T08:48:56.771Z,93.7
2017-03-02T08:49:56.759Z,91.7
2017-03-02T08:50:56.766Z,92.36
2017-03-02T08:51:56.744Z,92.65
2017-03-02T08:52:56.738Z,91.08
2017-03-02T08:53:56.740Z,90.61
2017-03-02T08:54:56.727Z,89.47
2017-03-02T08:55:56.711Z,89.75
2017-03-02T08:56:56.711Z,89.65
2017-03-02T08:57:56.699Z,90.13
2017-03-02T08:58:56.698Z,90.51
2017-03-02T08:59:56.682Z,89.56
2017-03-02T09:00:56.676Z,89.22
2017-03-02T09:01:56.668Z,89.7
2017-03-02T09:02:56.669Z,90.46
2017-03-02T09:03:56.663Z,89.22
2017-03-02T09:04:56.642Z,89.03
2017-03-02T09:05:56.637Z,90.36
2017-03-02T09:06:57.054Z,88.6
2017-03-02T09:07:56.637Z,86.12
2017-03-02T09:08:56.632Z,87.27
2017-03-02T09:09:56.620Z,87.65
2017-03-02T09:10:56.604Z,86.69
2017-03-02T09:11:56.621Z,85.93
2017-03-02T09:12:56.589Z,86.22
2017-03-02T09:13:56.583Z,80.79
2017-03-02T09:14:56.576Z,81.84
2017-03-02T09:15:56.573Z,83.21
2017-03-02T09:16:56.572Z,81.97
2017-03-02T09:17:56.560Z,81.49
2017-03-02T09:18:56.549Z,82.73
2017-03-02T09:19:56.567Z,82.07
2017-03-02T09:20:56.535Z,81.12
2017-03-02T09:21:56.540Z,80.73
2017-03-02T09:22:56.521Z,77.3
2017-03-02T09:23:56.515Z,78.35
2017-03-02T09:24:56.122Z,78.64
2017-03-02T09:25:56.502Z,78.2
2017-03-02T09:26:56.496Z,77.25
2017-03-02T09:27:56.490Z,76.57
2017-03-02T09:28:56.484Z,75.62
2017-03-02T09:29:56.491Z,75.62
2017-03-02T09:30:56.471Z,75.72
2017-03-02T09:31:56.466Z,72.76
2017-03-02T09:32:56.458Z,72.86
2017-03-02T09:33:56.455Z,74.16
2017-03-02T09:34:56.446Z,73.21
2017-03-02T09:35:56.440Z,73.49
2017-03-02T09:36:56.049Z,73.77
2017-03-02T09:37:56.434Z,74.44
2017-03-02T09:38:56.419Z,73.77
2017-03-02T09:39:56.414Z,73.01
2017-03-02T09:40:56.419Z,71.58
2017-03-02T09:41:56.406Z,71.3
2017-03-02T09:42:56.396Z,70.72
2017-03-02T09:43:56.386Z,70.06
2017-03-02T09:44:56.382Z,70.53
2017-03-02T09:45:56.373Z,70.72
2017-03-02T09:46:56.375Z,69.87
2017-03-02T09:47:56.362Z,69.96
2017-03-02T09:48:56.360Z,68.98
2017-03-02T09:49:56.344Z,69.39
2017-03-02T09:50:56.339Z,70.12
2017-03-02T09:51:56.340Z,70.59
2017-03-02T09:52:56.326Z,70.69
2017-03-02T09:53:56.318Z,70.02
2017-03-02T09:54:56.309Z,69.39
2017-03-02T09:55:56.302Z,69.58
2017-03-02T09:56:55.908Z,68.72
2017-03-02T09:57:56.293Z,67.1
2017-03-02T09:58:56.282Z,66.34
2017-03-02T09:59:56.275Z,66.15
2017-03-02T10:00:56.275Z,66.44
2017-03-02T10:01:56.271Z,65.77
2017-03-02T10:02:56.261Z,65.52
2017-03-02T10:03:56.246Z,64.47
2017-03-02T10:04:56.239Z,63.23
2017-03-02T10:05:56.233Z,62.56
2017-03-02T10:06:56.238Z,62.18
2017-03-02T10:07:56.228Z,61.89
2017-03-02T10:08:56.213Z,60.75
2017-03-02T10:09:56.220Z,60.84
2017-03-02T10:10:56.207Z,58.84
2017-03-02T10:11:56.194Z,59.51
2017-03-02T10:12:56.188Z,58.65
2017-03-02T10:13:56.187Z,58.75
2017-03-02T10:14:56.173Z,59.6
2017-03-02T10:15:56.175Z,59.6
2017-03-02T10:16:56.160Z,59.6
2017-03-02T10:17:56.162Z,60.17
2017-03-02T10:18:56.150Z,59.79
2017-03-02T10:19:56.163Z,59.51
2017-03-02T10:20:56.136Z,59.6
2017-03-02T10:21:56.140Z,60.17
2017-03-02T10:22:56.129Z,59.7
2017-03-02T10:23:56.118Z,59.12
2017-03-02T10:24:56.117Z,59.03
2017-03-02T10:25:56.103Z,58.75
2017-03-02T10:26:56.100Z,58.65
2017-03-02T10:27:56.094Z,58.75
2017-03-02T10:28:56.094Z,59.89
2017-03-02T10:29:56.085Z,59.51
2017-03-02T10:30:56.074Z,58.75
2017-03-02T10:31:56.067Z,58.77
2017-03-02T10:32:56.059Z,58.39
2017-03-02T10:33:56.054Z,57.06
2017-03-02T10:34:56.048Z,55.24
2017-03-02T10:35:56.041Z,54.38
2017-03-02T10:36:56.036Z,53.91
2017-03-02T10:37:56.046Z,53.84
2017-03-02T10:38:56.025Z,53.93
2017-03-02T10:39:56.020Z,52
2017-03-02T10:40:56.022Z,52.59
2017-03-02T10:41:56.018Z,52.57
2017-03-02T10:42:56.008Z,51.71
2017-03-02T10:43:56.013Z,51.9
2017-03-02T10:44:55.991Z,52.57
2017-03-02T10:45:55.993Z,53.72
2017-03-02T10:46:55.991Z,53.62
2017-03-02T10:47:55.993Z,53.81
2017-03-02T10:48:55.970Z,54.29
2017-03-02T10:49:55.965Z,54.48
2017-03-02T10:50:55.963Z,54
2017-03-02T10:51:55.954Z,53.72
2017-03-02T10:52:55.949Z,53.14
2017-03-02T10:53:55.949Z,52.86
2017-03-02T10:54:55.939Z,53.14
2017-03-02T10:55:55.931Z,53.78
2017-03-02T10:56:55.929Z,53.69
2017-03-02T10:57:55.918Z,53.78
2017-03-02T10:58:55.916Z,55.02
2017-03-02T10:59:55.906Z,54.9
2017-03-02T11:00:55.909Z,55.31
2017-03-02T11:01:55.910Z,55.57
2017-03-02T11:02:55.508Z,55.85
2017-03-02T11:03:55.883Z,56.74
2017-03-02T11:04:55.878Z,56.52
2017-03-02T11:05:55.868Z,56.24
2017-03-02T11:06:55.865Z,56.52
2017-03-02T11:07:55.857Z,57.19
2017-03-02T11:08:55.850Z,57.19
2017-03-02T11:09:55.855Z,57.48
2017-03-02T11:10:55.852Z,57.19
2017-03-02T11:11:55.445Z,57.41
2017-03-02T11:12:55.840Z,56.65
2017-03-02T11:13:55.818Z,57.03
2017-03-02T11:14:55.815Z,57.31
2017-03-02T11:15:55.812Z,56.93
2017-03-02T11:16:55.806Z,56.84
2017-03-02T11:17:55.795Z,56.65
2017-03-02T11:18:55.789Z,56.74
2017-03-02T11:19:55.782Z,57.6
2017-03-02T11:20:55.785Z,57.98
2017-03-02T11:21:55.784Z,59.03
2017-03-02T11:22:55.382Z,59.16
2017-03-02T11:23:55.756Z,60.17
2017-03-02T11:24:55.752Z,61.8
2017-03-02T11:25:55.361Z,61.89
2017-03-02T11:26:55.740Z,62.75
2017-03-02T11:27:55.742Z,63.32
2017-03-02T11:28:55.733Z,65.42
2017-03-02T11:29:55.729Z,66.34
2017-03-02T11:30:55.714Z,66.53
2017-03-02T11:31:55.725Z,68.44
2017-03-02T11:32:55.705Z,70.12
2017-03-02T11:33:55.705Z,70.12
2017-03-02T11:34:55.691Z,71.26
2017-03-02T11:35:55.686Z,71.17
2017-03-02T11:36:55.690Z,71.89
2017-03-02T11:37:55.672Z,73.13
2017-03-02T11:38:55.678Z,73.13
2017-03-02T11:39:55.659Z,73.66
2017-03-02T11:40:55.953Z,74.9
2017-03-02T11:41:55.644Z,76.33
2017-03-02T11:42:55.643Z,75.57
2017-03-02T11:43:55.631Z,75.76
2017-03-02T11:44:55.624Z,76.2
2017-03-02T11:45:55.616Z,76.48
2017-03-02T11:46:55.617Z,76.57
2017-03-02T11:47:55.602Z,77.24
2017-03-02T11:48:55.591Z,76.96
2017-03-02T11:49:55.588Z,76.86
2017-03-02T11:50:55.592Z,78
2017-03-02T11:51:55.570Z,79.05
2017-03-02T11:52:55.577Z,78.86
2017-03-02T11:53:55.552Z,79.14
2017-03-02T11:54:55.544Z,80.1
2017-03-02T11:55:55.536Z,80.76
2017-03-02T11:56:55.527Z,81.14
2017-03-02T11:57:55.528Z,80
2017-03-02T11:58:55.515Z,80.57
2017-03-02T11:59:55.511Z,80.47
2017-03-02T12:00:55.506Z,79.62
2017-03-02T12:01:55.488Z,79.81
2017-03-02T12:02:55.477Z,79.05
2017-03-02T12:03:55.467Z,78.96
2017-03-02T12:04:55.469Z,77.91
2017-03-02T12:05:55.452Z,78.1
2017-03-02T12:06:55.444Z,78.86
2017-03-02T12:07:55.445Z,79.05
2017-03-02T12:08:55.435Z,79.52
2017-03-02T12:09:55.422Z,80
2017-03-02T12:10:55.407Z,79.85
2017-03-02T12:11:55.401Z,80.52
2017-03-02T12:12:55.391Z,79.94
2017-03-02T12:13:55.391Z,78.52
2017-03-02T12:14:55.376Z,78.17
2017-03-02T12:15:55.368Z,78.17
2017-03-02T12:16:55.360Z,78.27
2017-03-02T12:17:55.366Z,77.32
2017-03-02T12:18:55.346Z,76.37
2017-03-02T12:19:55.338Z,75.74
2017-03-02T12:20:55.330Z,74.69
2017-03-02T12:21:55.337Z,72.21
2017-03-02T12:22:55.318Z,70.78
2017-03-02T12:23:55.306Z,70.59
2017-03-02T12:24:55.299Z,70.69
2017-03-02T12:25:55.296Z,70.59
2017-03-02T12:26:55.285Z,70.5
2017-03-02T12:27:55.277Z,70.06
2017-03-02T12:28:55.270Z,69.48
2017-03-02T12:29:55.265Z,67.96
2017-03-02T12:30:55.261Z,65.48
2017-03-02T12:31:55.265Z,65.86
2017-03-02T12:32:55.244Z,65.29
2017-03-02T12:33:55.238Z,65.86
2017-03-02T12:34:55.228Z,64.81
2017-03-02T12:35:55.224Z,64.91
2017-03-02T12:36:55.215Z,64.91
2017-03-02T12:37:55.210Z,64.34
2017-03-02T12:38:55.204Z,63.2
2017-03-02T12:39:55.197Z,63.86
2017-03-02T12:40:55.197Z,63.29
2017-03-02T12:41:55.195Z,63.2
2017-03-02T12:42:55.183Z,63
2017-03-02T12:43:54.782Z,62.43
2017-03-02T12:44:55.160Z,63.39
2017-03-02T12:45:55.407Z,62.84
2017-03-02T12:46:55.157Z,62.56
2017-03-02T12:47:55.156Z,62.84
2017-03-02T12:48:55.138Z,63.13
2017-03-02T12:49:55.145Z,62.56
2017-03-02T12:50:55.133Z,63.04
2017-03-02T12:51:55.115Z,62.56
2017-03-02T12:52:55.126Z,62.37
2017-03-02T12:53:55.106Z,62.27
2017-03-02T12:54:55.096Z,62.52